Time,TemperatureF,DewpointF,PressureIn,WindDirection,WindDirectionDegrees,WindSpeedMPH,WindSpeedGustMPH,Humidity,HourlyPrecipIn,Conditions,Clouds,dailyrainin,SoftwareType,DateUTC
2013-08-16 00:01:00,64.6,64.6,29.00,North,-999,-999.0,-999.0,100,0.00,,,0.00,WSDL version 420,2013-08-16 04:01:00,
2013-08-16 00:03:00,64.6,64.6,29.00,North,-999,-999.0,-999.0,100,0.00,,,0.00,WSDL version 420,2013-08-16 04:03:00,
2013-08-16 00:09:00,64.5,64.5,29.00,North,-999,-999.0,-999.0,100,0.00,,,0.00,WSDL version 420,2013-08-16 04:09:00,
2013-08-16 00:11:00,64.5,64.5,29.00,North,-999,-999.0,-999.0,100,0.00,,,0.00,WSDL version 420,2013-08-16 04:11:00,
2013-08-16 00:13:00,64.6,64.5,29.00,North,-999,-999.0,-999.0,100,0.00,,,0.00,WSDL version 420,2013-08-16 04:13:00,
2013-08-16 00:15:00,64.6,64.6,29.00,North,-999,-999.0,-999.0,100,0.00,,,0.00,WSDL version 420,2013-08-16 04:15:00,
2013-08-16 00:17:00,64.6,64.6,29.00,North,-999,-999.0,-999.0,100,0.00,,,0.00,WSDL version 420,2013-08-16 04:17:00,
2013-08-16 00:21:00,64.6,64.6,29.00,North,-999,-999.0,-999.0,100,0.00,,,0.00,WSDL version 420,2013-08-16 04:21:00,
2013-08-16 00:25:00,64.6,64.6,29.00,North,-999,-999.0,-999.0,100,0.00,,,0.00,WSDL version 420,2013-08-16 04:25:00,
2013-08-16 00:31:00,64.5,64.5,29.00,North,-999,-999.0,-999.0,100,0.00,,,0.00,WSDL version 420,2013-08-16 04:31:00,
2013-08-16 00:33:00,64.4,64.4,29.00,North,-999,-999.0,-999.0,100,0.00,,,0.00,WSDL version 420,2013-08-16 04:33:00,
2013-08-16 00:35:00,64.4,64.4,29.00,North,-999,-999.0,-999.0,100,0.00,,,0.00,WSDL version 420,2013-08-16 04:35:00,
2013-08-16 00:39:00,64.4,64.4,29.00,North,-999,-999.0,-999.0,100,0.00,,,0.00,WSDL version 420,2013-08-16 04:39:00,
2013-08-16 00:41:00,64.4,64.4,29.00,North,-999,-999.0,-999.0,100,0.00,,,0.00,WSDL version 420,2013-08-16 04:41:00,
2013-08-16 00:45:00,64.4,64.4,29.00,North,-999,-999.0,-999.0,100,0.00,,,0.00,WSDL version 420,2013-08-16 04:45:00,
2013-08-16 00:47:00,64.4,64.4,29.00,North,-999,-999.0,-999.0,100,0.00,,,0.00,WSDL version 420,2013-08-16 04:47:00,
2013-08-16 00:49:00,64.4,64.4,29.00,North,-999,-999.0,-999.0,100,0.00,,,0.00,WSDL version 420,2013-08-16 04:49:00,
2013-08-16 00:55:00,64.4,64.4,29.00,North,-999,-999.0,-999.0,100,0.00,,,0.00,WSDL version 420,2013-08-16 04:55:00,
2013-08-16 00:59:00,64.4,64.4,29.00,North,-999,-999.0,-999.0,100,0.00,,,0.00,WSDL version 420,2013-08-16 04:59:00,
2013-08-16 01:03:00,64.5,64.5,29.00,North,-999,-999.0,-999.0,100,0.00,,,0.00,WSDL version 420,2013-08-16 05:03:00,
2013-08-16 01:05:00,64.6,64.5,29.00,North,-999,-999.0,-999.0,100,0.00,,,0.00,WSDL version 420,2013-08-16 05:05:00,
2013-08-16 01:07:00,64.6,64.6,29.00,North,-999,-999.0,-999.0,100,0.00,,,0.00,WSDL version 420,2013-08-16 05:07:00,
2013-08-16 01:09:00,64.6,64.6,29.00,North,-999,-999.0,-999.0,100,0.00,,,0.00,WSDL version 420,2013-08-16 05:09:00,
2013-08-16 01:13:00,64.6,64.6,29.00,North,-999,-999.0,-999.0,100,0.00,,,0.00,WSDL version 420,2013-08-16 05:13:00,
2013-08-16 01:15:00,64.6,64.6,29.00,North,-999,-999.0,-999.0,100,0.00,,,0.00,WSDL version 420,2013-08-16 05:15:00,
2013-08-16 01:19:00,64.6,64.6,29.00,North,-999,-999.0,-999.0,100,0.00,,,0.00,WSDL version 420,2013-08-16 05:19:00,
2013-08-16 01:23:00,64.6,64.6,29.00,North,-999,-999.0,-999.0,100,0.00,,,0.00,WSDL version 420,2013-08-16 05:23:00,
2013-08-16 01:25:00,64.6,64.6,29.00,North,-999,-999.0,-999.0,100,0.00,,,0.00,WSDL version 420,2013-08-16 05:25:00,
2013-08-16 01:29:00,64.5,64.5,29.00,North,-999,-999.0,-999.0,100,0.00,,,0.00,WSDL version 420,2013-08-16 05:29:00,
2013-08-16 01:31:00,64.5,64.5,29.00,North,-999,-999.0,-999.0,100,0.00,,,0.00,WSDL version 420,2013-08-16 05:31:00,
2013-08-16 01:33:00,64.4,64.4,29.00,North,-999,-999.0,-999.0,100,0.00,,,0.00,WSDL version 420,2013-08-16 05:33:00,
2013-08-16 01:37:00,64.4,64.4,29.00,North,-999,-999.0,-999.0,100,0.00,,,0.00,WSDL version 420,2013-08-16 05:37:00,
2013-08-16 01:39:00,64.4,64.4,29.00,North,-999,-999.0,-999.0,100,0.00,,,0.00,WSDL version 420,2013-08-16 05:39:00,
2013-08-16 01:43:00,64.4,64.4,29.00,North,-999,-999.0,-999.0,100,0.00,,,0.00,WSDL version 420,2013-08-16 05:43:00,
2013-08-16 01:45:00,64.3,64.3,29.00,North,-999,-999.0,-999.0,100,0.00,,,0.00,WSDL version 420,2013-08-16 05:45:00,
2013-08-16 01:47:00,64.3,64.2,29.00,North,-999,-999.0,-999.0,100,0.00,,,0.00,WSDL version 420,2013-08-16 05:47:00,
2013-08-16 01:51:00,64.1,64.1,29.00,North,-999,-999.0,-999.0,100,0.00,,,0.00,WSDL version 420,2013-08-16 05:51:00,
2013-08-16 01:55:00,64.0,63.9,29.00,North,-999,-999.0,-999.0,100,0.00,,,0.00,WSDL version 420,2013-08-16 05:55:00,
2013-08-16 01:57:00,63.9,63.9,29.00,North,-999,-999.0,-999.0,100,0.00,,,0.00,WSDL version 420,2013-08-16 05:57:00,
2013-08-16 02:01:00,63.8,63.8,29.00,North,-999,-999.0,-999.0,100,0.00,,,0.00,WSDL version 420,2013-08-16 06:01:00,
2013-08-16 02:03:00,63.8,63.8,29.00,North,-999,-999.0,-999.0,100,0.00,,,0.00,WSDL version 420,2013-08-16 06:03:00,
2013-08-16 02:05:00,63.8,63.8,29.00,North,-999,-999.0,-999.0,100,0.00,,,0.00,WSDL version 420,2013-08-16 06:05:00,
2013-08-16 02:07:00,63.9,63.9,29.00,North,-999,-999.0,-999.0,100,0.00,,,0.00,WSDL version 420,2013-08-16 06:07:00,
2013-08-16 02:09:00,63.9,63.9,29.00,North,-999,-999.0,-999.0,100,0.00,,,0.00,WSDL version 420,2013-08-16 06:09:00,
2013-08-16 02:11:00,63.9,63.9,29.00,North,-999,-999.0,-999.0,100,0.00,,,0.00,WSDL version 420,2013-08-16 06:11:00,
2013-08-16 02:13:00,63.9,63.9,29.00,North,-999,-999.0,-999.0,100,0.00,,,0.00,WSDL version 420,2013-08-16 06:13:00,
2013-08-16 02:15:00,63.9,63.9,29.00,North,-999,-999.0,-999.0,100,0.00,,,0.00,WSDL version 420,2013-08-16 06:15:00,
2013-08-16 02:21:00,63.9,63.9,28.97,North,-999,-999.0,-999.0,100,0.00,,,0.00,WSDL version 420,2013-08-16 06:21:00,
2013-08-16 02:25:00,63.9,63.9,28.97,North,-999,-999.0,-999.0,100,0.00,,,0.00,WSDL version 420,2013-08-16 06:25:00,
2013-08-16 02:27:00,63.9,63.9,28.97,North,-999,-999.0,-999.0,100,0.00,,,0.00,WSDL version 420,2013-08-16 06:27:00,
2013-08-16 02:29:00,63.8,63.8,28.97,North,-999,-999.0,-999.0,100,0.00,,,0.00,WSDL version 420,2013-08-16 06:29:00,
2013-08-16 02:33:00,63.7,63.7,28.97,North,-999,-999.0,-999.0,100,0.00,,,0.00,WSDL version 420,2013-08-16 06:33:00,
2013-08-16 02:35:00,63.7,63.7,28.97,North,-999,-999.0,-999.0,100,0.00,,,0.00,WSDL version 420,2013-08-16 06:35:00,
2013-08-16 02:39:00,63.7,63.7,28.97,North,-999,-999.0,-999.0,100,0.00,,,0.00,WSDL version 420,2013-08-16 06:39:00,
2013-08-16 02:43:00,63.7,63.7,28.97,North,-999,-999.0,-999.0,100,0.00,,,0.00,WSDL version 420,2013-08-16 06:43:00,
2013-08-16 02:45:00,63.7,63.7,28.97,North,-999,-999.0,-999.0,100,0.00,,,0.00,WSDL version 420,2013-08-16 06:45:00,
2013-08-16 02:51:00,63.7,63.7,28.97,North,-999,-999.0,-999.0,100,0.00,,,0.00,WSDL version 420,2013-08-16 06:51:00,
2013-08-16 02:53:00,63.7,63.7,28.97,North,-999,-999.0,-999.0,100,0.00,,,0.00,WSDL version 420,2013-08-16 06:53:00,
2013-08-16 02:55:00,63.7,63.7,28.97,North,-999,-999.0,-999.0,100,0.00,,,0.00,WSDL version 420,2013-08-16 06:55:00,
2013-08-16 02:57:00,63.8,63.8,28.97,North,-999,-999.0,-999.0,100,0.00,,,0.00,WSDL version 420,2013-08-16 06:57:00,
2013-08-16 02:59:00,63.9,63.9,28.97,North,-999,-999.0,-999.0,100,0.00,,,0.00,WSDL version 420,2013-08-16 06:59:00,
2013-08-16 03:03:00,63.7,63.7,28.97,North,-999,-999.0,-999.0,100,0.00,,,0.00,WSDL version 420,2013-08-16 07:03:00,
2013-08-16 03:05:00,63.6,63.6,28.97,North,-999,-999.0,-999.0,100,0.00,,,0.00,WSDL version 420,2013-08-16 07:05:00,
2013-08-16 03:07:00,63.5,63.5,28.97,North,-999,-999.0,-999.0,100,0.00,,,0.00,WSDL version 420,2013-08-16 07:07:00,
2013-08-16 03:09:00,63.5,63.5,28.97,North,-999,-999.0,-999.0,100,0.00,,,0.00,WSDL version 420,2013-08-16 07:09:00,
2013-08-16 03:11:00,63.5,63.5,28.97,North,-999,-999.0,-999.0,100,0.00,,,0.00,WSDL version 420,2013-08-16 07:11:00,
2013-08-16 03:13:00,63.5,63.5,28.97,North,-999,-999.0,-999.0,100,0.00,,,0.00,WSDL version 420,2013-08-16 07:13:00,
2013-08-16 03:17:00,63.7,63.6,28.97,North,-999,-999.0,-999.0,100,0.00,,,0.00,WSDL version 420,2013-08-16 07:17:00,
2013-08-16 03:19:00,63.7,63.7,28.97,North,-999,-999.0,-999.0,100,0.00,,,0.00,WSDL version 420,2013-08-16 07:19:00,
2013-08-16 03:21:00,63.7,63.7,28.97,North,-999,-999.0,-999.0,100,0.00,,,0.00,WSDL version 420,2013-08-16 07:21:00,
2013-08-16 03:23:00,63.7,63.7,28.97,North,-999,-999.0,-999.0,100,0.00,,,0.00,WSDL version 420,2013-08-16 07:23:00,
2013-08-16 03:27:00,63.7,63.7,28.97,North,-999,-999.0,-999.0,100,0.00,,,0.00,WSDL version 420,2013-08-16 07:27:00,
2013-08-16 03:29:00,63.7,63.7,28.97,North,-999,-999.0,-999.0,100,0.00,,,0.00,WSDL version 420,2013-08-16 07:29:00,
2013-08-16 03:33:00,63.7,63.7,28.97,North,-999,-999.0,-999.0,100,0.00,,,0.00,WSDL version 420,2013-08-16 07:33:00,
2013-08-16 03:35:00,63.7,63.7,28.97,North,-999,-999.0,-999.0,100,0.00,,,0.00,WSDL version 420,2013-08-16 07:35:00,
2013-08-16 03:39:00,63.7,63.7,28.97,North,-999,-999.0,-999.0,100,0.00,,,0.00,WSDL version 420,2013-08-16 07:39:00,
2013-08-16 03:41:00,63.7,63.7,28.97,North,-999,-999.0,-999.0,100,0.00,,,0.00,WSDL version 420,2013-08-16 07:41:00,
2013-08-16 03:43:00,63.7,63.7,28.97,North,-999,-999.0,-999.0,100,0.00,,,0.00,WSDL version 420,2013-08-16 07:43:00,
2013-08-16 03:47:00,63.7,63.7,28.97,North,-999,-999.0,-999.0,100,0.00,,,0.00,WSDL version 420,2013-08-16 07:47:00,
2013-08-16 03:49:00,63.6,63.6,28.97,North,-999,-999.0,-999.0,100,0.00,,,0.00,WSDL version 420,2013-08-16 07:49:00,
2013-08-16 03:53:00,63.5,63.5,28.94,North,-999,-999.0,-999.0,100,0.00,,,0.00,WSDL version 420,2013-08-16 07:53:00,
2013-08-16 03:55:00,63.5,63.5,28.94,North,-999,-999.0,-999.0,100,0.00,,,0.00,WSDL version 420,2013-08-16 07:55:00,
2013-08-16 03:57:00,63.6,63.6,28.94,North,-999,-999.0,-999.0,100,0.00,,,0.00,WSDL version 420,2013-08-16 07:57:00,
2013-08-16 04:01:00,63.7,63.7,28.94,North,-999,-999.0,-999.0,100,0.00,,,0.00,WSDL version 420,2013-08-16 08:01:00,
2013-08-16 04:07:00,63.7,63.7,28.97,North,-999,-999.0,-999.0,100,0.00,,,0.00,WSDL version 420,2013-08-16 08:07:00,
2013-08-16 04:09:00,63.7,63.7,28.97,North,-999,-999.0,-999.0,100,0.00,,,0.00,WSDL version 420,2013-08-16 08:09:00,
2013-08-16 04:11:00,63.7,63.7,28.97,North,-999,-999.0,-999.0,100,0.00,,,0.00,WSDL version 420,2013-08-16 08:11:00,
2013-08-16 04:13:00,63.7,63.7,28.97,North,-999,-999.0,-999.0,100,0.00,,,0.00,WSDL version 420,2013-08-16 08:13:00,
2013-08-16 04:15:00,63.7,63.7,28.97,North,-999,-999.0,-999.0,100,0.00,,,0.00,WSDL version 420,2013-08-16 08:15:00,
2013-08-16 04:19:00,63.6,63.6,28.97,North,-999,-999.0,-999.0,100,0.00,,,0.00,WSDL version 420,2013-08-16 08:19:00,
2013-08-16 04:21:00,63.5,63.5,28.97,North,-999,-999.0,-999.0,100,0.00,,,0.00,WSDL version 420,2013-08-16 08:21:00,
2013-08-16 04:25:00,63.5,63.5,28.97,North,-999,-999.0,-999.0,100,0.00,,,0.00,WSDL version 420,2013-08-16 08:25:00,
2013-08-16 04:27:00,63.5,63.5,28.97,North,-999,-999.0,-999.0,100,0.00,,,0.00,WSDL version 420,2013-08-16 08:27:00,
2013-08-16 04:29:00,63.5,63.5,28.97,North,-999,-999.0,-999.0,100,0.00,,,0.00,WSDL version 420,2013-08-16 08:29:00,
2013-08-16 04:31:00,63.5,63.5,28.97,North,-999,-999.0,-999.0,100,0.00,,,0.00,WSDL version 420,2013-08-16 08:31:00,
2013-08-16 04:33:00,63.4,63.4,28.97,North,-999,-999.0,-999.0,100,0.00,,,0.00,WSDL version 420,2013-08-16 08:33:00,
2013-08-16 04:35:00,63.4,63.4,28.97,North,-999,-999.0,-999.0,100,0.00,,,0.00,WSDL version 420,2013-08-16 08:35:00,
2013-08-16 04:39:00,63.3,63.3,28.97,North,-999,-999.0,-999.0,100,0.00,,,0.00,WSDL version 420,2013-08-16 08:39:00,
2013-08-16 04:41:00,63.2,63.2,28.97,North,-999,-999.0,-999.0,100,0.00,,,0.00,WSDL version 420,2013-08-16 08:41:00,
2013-08-16 04:43:00,63.1,63.1,28.97,North,-999,-999.0,-999.0,100,0.00,,,0.00,WSDL version 420,2013-08-16 08:43:00,
2013-08-16 04:49:00,63.1,63.1,28.97,North,-999,-999.0,-999.0,100,0.00,,,0.00,WSDL version 420,2013-08-16 08:49:00,
2013-08-16 04:51:00,63.0,63.0,28.97,North,-999,-999.0,-999.0,100,0.00,,,0.00,WSDL version 420,2013-08-16 08:51:00,
2013-08-16 04:53:00,63.0,63.0,28.97,North,-999,-999.0,-999.0,100,0.00,,,0.00,WSDL version 420,2013-08-16 08:53:00,
2013-08-16 04:59:00,63.0,63.0,28.97,North,-999,-999.0,-999.0,100,0.00,,,0.00,WSDL version 420,2013-08-16 08:59:00,
2013-08-16 05:01:00,63.0,63.0,28.97,North,-999,-999.0,-999.0,100,0.00,,,0.00,WSDL version 420,2013-08-16 09:01:00,
2013-08-16 05:05:00,62.8,62.8,28.97,North,-999,-999.0,-999.0,100,0.00,,,0.00,WSDL version 420,2013-08-16 09:05:00,
2013-08-16 05:07:00,62.8,62.8,28.97,North,-999,-999.0,-999.0,100,0.00,,,0.00,WSDL version 420,2013-08-16 09:07:00,
2013-08-16 05:11:00,62.8,62.8,28.97,North,-999,-999.0,-999.0,100,0.00,,,0.00,WSDL version 420,2013-08-16 09:11:00,
2013-08-16 05:13:00,62.7,62.7,28.97,North,-999,-999.0,-999.0,100,0.00,,,0.00,WSDL version 420,2013-08-16 09:13:00,
2013-08-16 05:15:00,62.7,62.7,28.97,North,-999,-999.0,-999.0,100,0.00,,,0.00,WSDL version 420,2013-08-16 09:15:00,
2013-08-16 05:17:00,62.6,62.6,28.97,North,-999,-999.0,-999.0,100,0.00,,,0.00,WSDL version 420,2013-08-16 09:17:00,
2013-08-16 05:21:00,62.6,62.6,28.97,North,-999,-999.0,-999.0,100,0.00,,,0.00,WSDL version 420,2013-08-16 09:21:00,
2013-08-16 05:23:00,62.7,62.7,28.97,North,-999,-999.0,-999.0,100,0.00,,,0.00,WSDL version 420,2013-08-16 09:23:00,
2013-08-16 05:25:00,62.8,62.7,28.97,North,-999,-999.0,-999.0,100,0.00,,,0.00,WSDL version 420,2013-08-16 09:25:00,
2013-08-16 05:27:00,62.8,62.8,28.97,North,-999,-999.0,-999.0,100,0.00,,,0.00,WSDL version 420,2013-08-16 09:27:00,
2013-08-16 05:29:00,62.7,62.7,28.97,North,-999,-999.0,-999.0,100,0.00,,,0.00,WSDL version 420,2013-08-16 09:29:00,
2013-08-16 05:31:00,62.7,62.7,28.97,North,-999,-999.0,-999.0,100,0.00,,,0.00,WSDL version 420,2013-08-16 09:31:00,
2013-08-16 05:35:00,62.6,62.6,28.97,North,-999,-999.0,-999.0,100,0.00,,,0.00,WSDL version 420,2013-08-16 09:35:00,
2013-08-16 05:37:00,62.5,62.5,28.97,North,-999,-999.0,-999.0,100,0.00,,,0.00,WSDL version 420,2013-08-16 09:37:00,
2013-08-16 05:39:00,62.3,62.3,28.97,North,-999,-999.0,-999.0,100,0.00,,,0.00,WSDL version 420,2013-08-16 09:39:00,
2013-08-16 05:43:00,62.2,62.2,28.97,North,-999,-999.0,-999.0,100,0.00,,,0.00,WSDL version 420,2013-08-16 09:43:00,
2013-08-16 05:47:00,62.4,62.4,28.97,North,-999,-999.0,-999.0,100,0.00,,,0.00,WSDL version 420,2013-08-16 09:47:00,
2013-08-16 05:49:00,62.5,62.4,28.97,North,-999,-999.0,-999.0,100,0.00,,,0.00,WSDL version 420,2013-08-16 09:49:00,
2013-08-16 05:53:00,62.6,62.6,28.97,North,-999,-999.0,-999.0,100,0.00,,,0.00,WSDL version 420,2013-08-16 09:53:00,
2013-08-16 05:55:00,62.6,62.6,28.97,North,-999,-999.0,-999.0,100,0.00,,,0.00,WSDL version 420,2013-08-16 09:55:00,
2013-08-16 05:57:00,62.6,62.6,28.97,North,-999,-999.0,-999.0,100,0.00,,,0.00,WSDL version 420,2013-08-16 09:57:00,
2013-08-16 05:59:00,62.6,62.6,28.97,North,-999,-999.0,-999.0,100,0.00,,,0.00,WSDL version 420,2013-08-16 09:59:00,
2013-08-16 06:01:00,62.6,62.6,28.97,North,-999,-999.0,-999.0,100,0.00,,,0.00,WSDL version 420,2013-08-16 10:01:00,
2013-08-16 06:03:00,62.6,62.6,28.97,North,-999,-999.0,-999.0,100,0.00,,,0.00,WSDL version 420,2013-08-16 10:03:00,
2013-08-16 06:05:00,62.7,62.7,28.97,North,-999,-999.0,-999.0,100,0.00,,,0.00,WSDL version 420,2013-08-16 10:05:00,
2013-08-16 06:07:00,62.8,62.8,28.97,North,-999,-999.0,-999.0,100,0.00,,,0.00,WSDL version 420,2013-08-16 10:07:00,
2013-08-16 06:11:00,62.8,62.8,28.97,North,-999,-999.0,-999.0,100,0.00,,,0.00,WSDL version 420,2013-08-16 10:11:00,
2013-08-16 06:13:00,62.8,62.8,28.97,North,-999,-999.0,-999.0,100,0.00,,,0.00,WSDL version 420,2013-08-16 10:13:00,
2013-08-16 06:17:00,62.8,62.8,28.97,North,-999,-999.0,-999.0,100,0.00,,,0.00,WSDL version 420,2013-08-16 10:17:00,
2013-08-16 06:21:00,62.8,62.8,28.97,North,-999,-999.0,-999.0,100,0.00,,,0.00,WSDL version 420,2013-08-16 10:21:00,
2013-08-16 06:23:00,62.8,62.8,28.97,North,-999,-999.0,-999.0,100,0.00,,,0.00,WSDL version 420,2013-08-16 10:23:00,
2013-08-16 06:25:00,62.8,62.8,28.97,North,-999,-999.0,-999.0,100,0.00,,,0.00,WSDL version 420,2013-08-16 10:25:00,
2013-08-16 06:29:00,62.8,62.8,28.97,North,-999,-999.0,-999.0,100,0.00,,,0.00,WSDL version 420,2013-08-16 10:29:00,
2013-08-16 06:33:00,62.8,62.8,28.97,North,-999,-999.0,-999.0,100,0.00,,,0.00,WSDL version 420,2013-08-16 10:33:00,
2013-08-16 06:37:00,62.8,62.8,28.97,North,-999,-999.0,-999.0,100,0.00,,,0.00,WSDL version 420,2013-08-16 10:37:00,
2013-08-16 06:39:00,62.8,62.8,28.97,North,-999,-999.0,-999.0,100,0.00,,,0.00,WSDL version 420,2013-08-16 10:39:00,
2013-08-16 06:41:00,62.8,62.8,28.97,North,-999,-999.0,-999.0,100,0.00,,,0.00,WSDL version 420,2013-08-16 10:41:00,
2013-08-16 06:43:00,62.8,62.8,28.97,North,-999,-999.0,-999.0,100,0.00,,,0.00,WSDL version 420,2013-08-16 10:43:00,
2013-08-16 06:49:00,62.8,62.8,28.97,North,-999,-999.0,-999.0,100,0.00,,,0.00,WSDL version 420,2013-08-16 10:49:00,
2013-08-16 06:51:00,62.8,62.8,28.97,North,-999,-999.0,-999.0,100,0.00,,,0.00,WSDL version 420,2013-08-16 10:51:00,
2013-08-16 06:53:00,62.9,62.9,29.00,North,-999,-999.0,-999.0,100,0.00,,,0.00,WSDL version 420,2013-08-16 10:53:00,
2013-08-16 06:59:00,63.0,63.0,29.00,North,-999,-999.0,-999.0,100,0.00,,,0.00,WSDL version 420,2013-08-16 10:59:00,
2013-08-16 07:01:00,63.0,63.0,29.00,North,-999,-999.0,-999.0,100,0.00,,,0.00,WSDL version 420,2013-08-16 11:01:00,
2013-08-16 07:05:00,63.0,63.0,29.00,North,-999,-999.0,-999.0,100,0.00,,,0.00,WSDL version 420,2013-08-16 11:05:00,
2013-08-16 07:09:00,63.0,63.0,28.97,North,-999,-999.0,-999.0,100,0.00,,,0.00,WSDL version 420,2013-08-16 11:09:00,
2013-08-16 07:11:00,63.0,63.0,28.97,North,-999,-999.0,-999.0,100,0.00,,,0.00,WSDL version 420,2013-08-16 11:11:00,
2013-08-16 07:13:00,63.0,63.0,28.97,North,-999,-999.0,-999.0,100,0.00,,,0.00,WSDL version 420,2013-08-16 11:13:00,
2013-08-16 07:15:00,63.1,63.1,28.97,North,-999,-999.0,-999.0,100,0.00,,,0.00,WSDL version 420,2013-08-16 11:15:00,
2013-08-16 07:17:00,63.1,63.1,28.97,North,-999,-999.0,-999.0,100,0.00,,,0.00,WSDL version 420,2013-08-16 11:17:00,
2013-08-16 07:19:00,63.1,63.1,28.97,North,-999,-999.0,-999.0,100,0.00,,,0.00,WSDL version 420,2013-08-16 11:19:00,
2013-08-16 07:21:00,63.1,63.1,28.97,North,-999,-999.0,-999.0,100,0.00,,,0.00,WSDL version 420,2013-08-16 11:21:00,
2013-08-16 07:25:00,63.1,63.1,29.00,North,-999,-999.0,-999.0,100,0.00,,,0.00,WSDL version 420,2013-08-16 11:25:00,
2013-08-16 07:27:00,63.1,63.1,29.00,North,-999,-999.0,-999.0,100,0.00,,,0.00,WSDL version 420,2013-08-16 11:27:00,
2013-08-16 07:33:00,63.3,63.3,29.00,North,-999,-999.0,-999.0,100,0.00,,,0.00,WSDL version 420,2013-08-16 11:33:00,
2013-08-16 07:35:00,63.3,63.3,29.00,North,-999,-999.0,-999.0,100,0.00,,,0.00,WSDL version 420,2013-08-16 11:35:00,
2013-08-16 07:37:00,63.3,63.3,29.00,North,-999,-999.0,-999.0,100,0.00,,,0.00,WSDL version 420,2013-08-16 11:37:00,
2013-08-16 07:41:00,63.3,63.3,29.00,North,-999,-999.0,-999.0,100,0.00,,,0.00,WSDL version 420,2013-08-16 11:41:00,
2013-08-16 07:43:00,63.3,63.3,29.00,North,-999,-999.0,-999.0,100,0.00,,,0.00,WSDL version 420,2013-08-16 11:43:00,
2013-08-16 07:45:00,63.3,63.3,29.00,North,-999,-999.0,-999.0,100,0.00,,,0.00,WSDL version 420,2013-08-16 11:45:00,
2013-08-16 07:49:00,63.5,63.5,29.00,North,-999,-999.0,-999.0,100,0.00,,,0.00,WSDL version 420,2013-08-16 11:49:00,
2013-08-16 07:51:00,63.5,63.5,29.00,North,-999,-999.0,-999.0,100,0.00,,,0.00,WSDL version 420,2013-08-16 11:51:00,
2013-08-16 07:53:00,63.6,63.6,29.00,North,-999,-999.0,-999.0,100,0.00,,,0.00,WSDL version 420,2013-08-16 11:53:00,
2013-08-16 07:55:00,63.6,63.6,29.00,North,-999,-999.0,-999.0,100,0.00,,,0.00,WSDL version 420,2013-08-16 11:55:00,
2013-08-16 07:59:00,63.7,63.7,29.00,North,-999,-999.0,-999.0,100,0.00,,,0.00,WSDL version 420,2013-08-16 11:59:00,
2013-08-16 08:03:00,63.8,63.8,29.00,North,-999,-999.0,-999.0,100,0.00,,,0.00,WSDL version 420,2013-08-16 12:03:00,
2013-08-16 08:05:00,63.8,63.8,29.00,North,-999,-999.0,-999.0,100,0.00,,,0.00,WSDL version 420,2013-08-16 12:05:00,
2013-08-16 08:09:00,63.9,63.9,29.00,North,-999,-999.0,-999.0,100,0.00,,,0.00,WSDL version 420,2013-08-16 12:09:00,
2013-08-16 08:13:00,63.9,63.9,29.00,North,-999,-999.0,-999.0,100,0.00,,,0.00,WSDL version 420,2013-08-16 12:13:00,
2013-08-16 08:15:00,63.9,63.9,29.00,North,-999,-999.0,-999.0,100,0.00,,,0.00,WSDL version 420,2013-08-16 12:15:00,
2013-08-16 08:17:00,63.9,63.9,29.00,North,-999,-999.0,-999.0,100,0.00,,,0.00,WSDL version 420,2013-08-16 12:17:00,
2013-08-16 08:19:00,63.9,63.9,29.00,North,-999,-999.0,-999.0,100,0.00,,,0.00,WSDL version 420,2013-08-16 12:19:00,
2013-08-16 08:23:00,64.0,64.0,29.00,North,-999,-999.0,-999.0,100,0.00,,,0.00,WSDL version 420,2013-08-16 12:23:00,
2013-08-16 08:25:00,64.1,64.1,29.00,North,-999,-999.0,-999.0,100,0.00,,,0.00,WSDL version 420,2013-08-16 12:25:00,
2013-08-16 08:29:00,64.3,64.3,29.00,North,-999,-999.0,-999.0,100,0.00,,,0.00,WSDL version 420,2013-08-16 12:29:00,
2013-08-16 08:33:00,64.5,64.5,29.00,North,-999,-999.0,-999.0,100,0.00,,,0.00,WSDL version 420,2013-08-16 12:33:00,
2013-08-16 08:35:00,64.6,64.5,29.00,North,-999,-999.0,-999.0,100,0.00,,,0.00,WSDL version 420,2013-08-16 12:35:00,
2013-08-16 08:39:00,64.6,64.6,29.00,North,-999,-999.0,-999.0,100,0.00,,,0.00,WSDL version 420,2013-08-16 12:39:00,
2013-08-16 08:41:00,64.7,64.7,29.00,North,-999,-999.0,-999.0,100,0.00,,,0.00,WSDL version 420,2013-08-16 12:41:00,
2013-08-16 08:47:00,64.9,64.9,29.00,North,-999,-999.0,-999.0,100,0.00,,,0.00,WSDL version 420,2013-08-16 12:47:00,
2013-08-16 08:49:00,65.0,65.0,29.00,North,-999,-999.0,-999.0,100,0.00,,,0.00,WSDL version 420,2013-08-16 12:49:00,
2013-08-16 08:51:00,65.2,65.1,29.00,North,-999,-999.0,-999.0,100,0.00,,,0.00,WSDL version 420,2013-08-16 12:51:00,
2013-08-16 08:55:00,65.3,65.3,29.00,North,-999,-999.0,-999.0,100,0.00,,,0.00,WSDL version 420,2013-08-16 12:55:00,
2013-08-16 08:59:00,65.5,65.4,29.00,North,-999,-999.0,-999.0,100,0.00,,,0.00,WSDL version 420,2013-08-16 12:59:00,
2013-08-16 09:01:00,65.5,65.5,29.00,North,-999,-999.0,-999.0,100,0.00,,,0.00,WSDL version 420,2013-08-16 13:01:00,
2013-08-16 09:05:00,65.5,65.5,29.00,North,-999,-999.0,-999.0,100,0.00,,,0.00,WSDL version 420,2013-08-16 13:05:00,
2013-08-16 09:11:00,65.7,65.7,29.00,North,-999,-999.0,-999.0,100,0.00,,,0.00,WSDL version 420,2013-08-16 13:11:00,
2013-08-16 09:13:00,65.7,65.7,29.00,North,-999,-999.0,-999.0,100,0.00,,,0.00,WSDL version 420,2013-08-16 13:13:00,
2013-08-16 09:15:00,65.7,65.7,29.00,North,-999,-999.0,-999.0,100,0.00,,,0.00,WSDL version 420,2013-08-16 13:15:00,
2013-08-16 09:19:00,65.7,65.7,29.00,North,-999,-999.0,-999.0,100,0.00,,,0.00,WSDL version 420,2013-08-16 13:19:00,
2013-08-16 09:21:00,65.7,65.7,29.00,North,-999,-999.0,-999.0,100,0.00,,,0.00,WSDL version 420,2013-08-16 13:21:00,
2013-08-16 09:25:00,65.7,65.7,29.00,North,-999,-999.0,-999.0,100,0.00,,,0.00,WSDL version 420,2013-08-16 13:25:00,
2013-08-16 09:27:00,65.7,65.7,29.00,North,-999,-999.0,-999.0,100,0.00,,,0.00,WSDL version 420,2013-08-16 13:27:00,
2013-08-16 09:29:00,65.7,65.7,29.00,North,-999,-999.0,-999.0,100,0.00,,,0.00,WSDL version 420,2013-08-16 13:29:00,
2013-08-16 09:31:00,65.6,65.6,29.00,North,-999,-999.0,-999.0,100,0.00,,,0.00,WSDL version 420,2013-08-16 13:31:00,
2013-08-16 09:33:00,65.6,65.6,29.00,North,-999,-999.0,-999.0,100,0.00,,,0.00,WSDL version 420,2013-08-16 13:33:00,
2013-08-16 09:37:00,65.5,65.5,29.03,North,-999,-999.0,-999.0,100,0.00,,,0.00,WSDL version 420,2013-08-16 13:37:00,
2013-08-16 09:39:00,65.5,65.5,29.03,North,-999,-999.0,-999.0,100,0.00,,,0.00,WSDL version 420,2013-08-16 13:39:00,
2013-08-16 09:41:00,65.5,65.5,29.03,North,-999,-999.0,-999.0,100,0.00,,,0.00,WSDL version 420,2013-08-16 13:41:00,
2013-08-16 09:43:00,65.5,65.5,29.03,North,-999,-999.0,-999.0,100,0.00,,,0.00,WSDL version 420,2013-08-16 13:43:00,
2013-08-16 09:47:00,65.5,65.5,29.03,North,-999,-999.0,-999.0,100,0.00,,,0.00,WSDL version 420,2013-08-16 13:47:00,
2013-08-16 09:51:00,65.3,65.3,29.03,North,-999,-999.0,-999.0,100,0.00,,,0.00,WSDL version 420,2013-08-16 13:51:00,
2013-08-16 09:57:00,65.1,65.1,29.03,North,-999,-999.0,-999.0,100,0.00,,,0.00,WSDL version 420,2013-08-16 13:57:00,
2013-08-16 10:01:00,65.1,65.1,29.03,North,-999,-999.0,-999.0,100,0.00,,,0.00,WSDL version 420,2013-08-16 14:01:00,
2013-08-16 10:07:00,65.3,65.3,29.03,North,-999,-999.0,-999.0,100,0.00,,,0.00,WSDL version 420,2013-08-16 14:07:00,
2013-08-16 10:12:00,65.3,65.3,29.00,North,-999,-999.0,-999.0,100,0.00,,,0.00,WSDL version 420,2013-08-16 14:12:00,
2013-08-16 10:14:00,65.3,65.3,29.00,North,-999,-999.0,-999.0,100,0.00,,,0.00,WSDL version 420,2013-08-16 14:14:00,
2013-08-16 10:16:00,65.4,65.4,29.00,North,-999,-999.0,-999.0,100,0.00,,,0.00,WSDL version 420,2013-08-16 14:16:00,
2013-08-16 10:18:00,65.5,65.4,29.00,North,-999,-999.0,-999.0,100,0.00,,,0.00,WSDL version 420,2013-08-16 14:18:00,
2013-08-16 10:20:00,65.5,65.5,29.00,North,-999,-999.0,-999.0,100,0.00,,,0.00,WSDL version 420,2013-08-16 14:20:00,
2013-08-16 10:22:00,65.5,65.5,29.00,North,-999,-999.0,-999.0,100,0.00,,,0.00,WSDL version 420,2013-08-16 14:22:00,
2013-08-16 10:26:00,65.5,65.5,29.00,North,-999,-999.0,-999.0,100,0.00,,,0.00,WSDL version 420,2013-08-16 14:26:00,
2013-08-16 10:30:00,65.5,65.4,29.00,North,-999,-999.0,-999.0,99,0.00,,,0.00,WSDL version 420,2013-08-16 14:30:00,
2013-08-16 10:32:00,65.5,64.8,29.00,North,-999,-999.0,-999.0,93,0.00,,,0.00,WSDL version 420,2013-08-16 14:32:00,
2013-08-16 10:38:00,65.6,60.7,29.03,North,-999,-999.0,-999.0,82,0.00,,,0.00,WSDL version 420,2013-08-16 14:38:00,
2013-08-16 10:40:00,65.6,60.1,29.03,North,-999,-999.0,-999.0,81,0.00,,,0.00,WSDL version 420,2013-08-16 14:40:00,
2013-08-16 10:44:00,65.7,59.2,29.03,North,-999,-999.0,-999.0,78,0.00,,,0.00,WSDL version 420,2013-08-16 14:44:00,
2013-08-16 10:46:00,65.7,58.9,29.03,North,-999,-999.0,-999.0,78,0.00,,,0.00,WSDL version 420,2013-08-16 14:46:00,
2013-08-16 10:48:00,65.6,58.4,29.03,North,-999,-999.0,-999.0,76,0.00,,,0.00,WSDL version 420,2013-08-16 14:48:00,
2013-08-16 10:52:00,65.6,57.6,29.03,North,-999,-999.0,-999.0,75,0.00,,,0.00,WSDL version 420,2013-08-16 14:52:00,
2013-08-16 10:54:00,65.6,57.4,29.03,North,-999,-999.0,-999.0,74,0.00,,,0.00,WSDL version 420,2013-08-16 14:54:00,
2013-08-16 10:56:00,65.7,57.2,29.03,North,-999,-999.0,-999.0,73,0.00,,,0.00,WSDL version 420,2013-08-16 14:56:00,
2013-08-16 10:58:00,65.7,56.9,29.03,North,-999,-999.0,-999.0,72,0.00,,,0.00,WSDL version 420,2013-08-16 14:58:00,
2013-08-16 11:02:00,65.7,55.9,29.03,North,-999,-999.0,-999.0,70,0.00,,,0.00,WSDL version 420,2013-08-16 15:02:00,
2013-08-16 11:04:00,65.7,55.7,29.03,North,-999,-999.0,-999.0,70,0.00,,,0.00,WSDL version 420,2013-08-16 15:04:00,
2013-08-16 11:06:00,65.7,55.6,29.03,North,-999,-999.0,-999.0,70,0.00,,,0.00,WSDL version 420,2013-08-16 15:06:00,
2013-08-16 11:08:00,65.8,55.7,29.03,North,-999,-999.0,-999.0,70,0.00,,,0.00,WSDL version 420,2013-08-16 15:08:00,
2013-08-16 11:12:00,65.8,55.8,29.03,North,-999,-999.0,-999.0,70,0.00,,,0.00,WSDL version 420,2013-08-16 15:12:00,
2013-08-16 11:18:00,65.9,55.9,29.03,North,-999,-999.0,-999.0,70,0.00,,,0.00,WSDL version 420,2013-08-16 15:18:00,
2013-08-16 11:20:00,66.0,55.9,29.03,North,-999,-999.0,-999.0,70,0.00,,,0.00,WSDL version 420,2013-08-16 15:20:00,
2013-08-16 11:22:00,66.0,56.0,29.03,North,-999,-999.0,-999.0,70,0.00,,,0.00,WSDL version 420,2013-08-16 15:22:00,
2013-08-16 11:26:00,66.2,56.1,29.03,North,-999,-999.0,-999.0,70,0.00,,,0.00,WSDL version 420,2013-08-16 15:26:00,
2013-08-16 11:28:00,66.3,56.2,29.03,North,-999,-999.0,-999.0,70,0.00,,,0.00,WSDL version 420,2013-08-16 15:28:00,
2013-08-16 11:32:00,66.5,56.3,29.03,North,-999,-999.0,-999.0,69,0.00,,,0.00,WSDL version 420,2013-08-16 15:32:00,
2013-08-16 11:34:00,66.5,56.2,29.03,North,-999,-999.0,-999.0,69,0.00,,,0.00,WSDL version 420,2013-08-16 15:34:00,
2013-08-16 11:38:00,66.7,55.9,29.03,North,-999,-999.0,-999.0,68,0.00,,,0.00,WSDL version 420,2013-08-16 15:38:00,
2013-08-16 11:42:00,66.7,55.9,29.03,North,-999,-999.0,-999.0,68,0.00,,,0.00,WSDL version 420,2013-08-16 15:42:00,
2013-08-16 11:44:00,66.7,55.9,29.03,North,-999,-999.0,-999.0,68,0.00,,,0.00,WSDL version 420,2013-08-16 15:44:00,
2013-08-16 11:50:00,66.7,55.8,29.03,North,-999,-999.0,-999.0,67,0.00,,,0.00,WSDL version 420,2013-08-16 15:50:00,
2013-08-16 11:52:00,66.7,55.5,29.03,North,-999,-999.0,-999.0,66,0.00,,,0.00,WSDL version 420,2013-08-16 15:52:00,
2013-08-16 11:54:00,66.6,55.1,29.03,North,-999,-999.0,-999.0,66,0.00,,,0.00,WSDL version 420,2013-08-16 15:54:00,
2013-08-16 11:56:00,66.5,54.7,29.03,North,-999,-999.0,-999.0,65,0.00,,,0.00,WSDL version 420,2013-08-16 15:56:00,
2013-08-16 11:58:00,66.5,54.4,29.03,North,-999,-999.0,-999.0,64,0.00,,,0.00,WSDL version 420,2013-08-16 15:58:00,
2013-08-16 12:02:00,66.4,53.8,29.03,North,-999,-999.0,-999.0,64,0.00,,,0.00,WSDL version 420,2013-08-16 16:02:00,
2013-08-16 12:04:00,66.4,54.0,29.03,North,-999,-999.0,-999.0,65,0.00,,,0.00,WSDL version 420,2013-08-16 16:04:00,
2013-08-16 12:06:00,66.3,54.1,29.03,North,-999,-999.0,-999.0,65,0.00,,,0.00,WSDL version 420,2013-08-16 16:06:00,
2013-08-16 12:08:00,66.3,54.4,29.03,North,-999,-999.0,-999.0,66,0.00,,,0.00,WSDL version 420,2013-08-16 16:08:00,
2013-08-16 12:12:00,66.3,54.7,29.03,North,-999,-999.0,-999.0,67,0.00,,,0.00,WSDL version 420,2013-08-16 16:12:00,
2013-08-16 12:14:00,66.3,55.0,29.03,North,-999,-999.0,-999.0,67,0.00,,,0.00,WSDL version 420,2013-08-16 16:14:00,
2013-08-16 12:16:00,66.3,55.0,29.03,North,-999,-999.0,-999.0,67,0.00,,,0.00,WSDL version 420,2013-08-16 16:16:00,
2013-08-16 12:22:00,66.2,54.9,29.03,North,-999,-999.0,-999.0,67,0.00,,,0.00,WSDL version 420,2013-08-16 16:22:00,
2013-08-16 12:26:00,66.2,55.1,29.03,North,-999,-999.0,-999.0,68,0.00,,,0.00,WSDL version 420,2013-08-16 16:26:00,
2013-08-16 12:28:00,66.2,55.2,29.03,North,-999,-999.0,-999.0,68,0.00,,,0.00,WSDL version 420,2013-08-16 16:28:00,
2013-08-16 12:34:00,66.4,55.2,29.03,North,-999,-999.0,-999.0,67,0.00,,,0.00,WSDL version 420,2013-08-16 16:34:00,
2013-08-16 12:36:00,66.5,55.2,29.03,North,-999,-999.0,-999.0,67,0.00,,,0.00,WSDL version 420,2013-08-16 16:36:00,
2013-08-16 12:38:00,66.6,55.3,29.00,North,-999,-999.0,-999.0,67,0.00,,,0.00,WSDL version 420,2013-08-16 16:38:00,
2013-08-16 12:40:00,66.7,55.6,29.00,North,-999,-999.0,-999.0,68,0.00,,,0.00,WSDL version 420,2013-08-16 16:40:00,
2013-08-16 12:42:00,66.7,55.8,29.00,North,-999,-999.0,-999.0,68,0.00,,,0.00,WSDL version 420,2013-08-16 16:42:00,
2013-08-16 12:44:00,66.8,55.9,29.00,North,-999,-999.0,-999.0,68,0.00,,,0.00,WSDL version 420,2013-08-16 16:44:00,
2013-08-16 12:46:00,66.8,55.9,29.00,North,-999,-999.0,-999.0,68,0.00,,,0.00,WSDL version 420,2013-08-16 16:46:00,
2013-08-16 12:48:00,66.9,56.0,29.00,North,-999,-999.0,-999.0,68,0.00,,,0.00,WSDL version 420,2013-08-16 16:48:00,
2013-08-16 12:52:00,66.9,55.9,29.00,North,-999,-999.0,-999.0,67,0.00,,,0.00,WSDL version 420,2013-08-16 16:52:00,
2013-08-16 12:56:00,66.9,55.3,29.00,North,-999,-999.0,-999.0,66,0.00,,,0.00,WSDL version 420,2013-08-16 16:56:00,
2013-08-16 13:00:00,67.0,55.3,29.00,North,-999,-999.0,-999.0,66,0.00,,,0.00,WSDL version 420,2013-08-16 17:00:00,
2013-08-16 13:02:00,67.2,55.4,29.00,North,-999,-999.0,-999.0,66,0.00,,,0.00,WSDL version 420,2013-08-16 17:02:00,
2013-08-16 13:04:00,67.3,55.6,29.00,North,-999,-999.0,-999.0,67,0.00,,,0.00,WSDL version 420,2013-08-16 17:04:00,
2013-08-16 13:06:00,67.4,55.8,29.00,North,-999,-999.0,-999.0,67,0.00,,,0.00,WSDL version 420,2013-08-16 17:06:00,
2013-08-16 13:08:00,67.5,56.2,29.03,North,-999,-999.0,-999.0,67,0.00,,,0.00,WSDL version 420,2013-08-16 17:08:00,
2013-08-16 13:10:00,67.7,56.3,29.03,North,-999,-999.0,-999.0,67,0.00,,,0.00,WSDL version 420,2013-08-16 17:10:00,
2013-08-16 13:12:00,67.9,56.3,29.03,North,-999,-999.0,-999.0,66,0.00,,,0.00,WSDL version 420,2013-08-16 17:12:00,
2013-08-16 13:14:00,68.0,56.2,29.03,North,-999,-999.0,-999.0,65,0.00,,,0.00,WSDL version 420,2013-08-16 17:14:00,
2013-08-16 13:20:00,68.3,56.3,29.03,North,-999,-999.0,-999.0,66,0.00,,,0.00,WSDL version 420,2013-08-16 17:20:00,
2013-08-16 13:22:00,68.4,56.5,29.00,North,-999,-999.0,-999.0,65,0.00,,,0.00,WSDL version 420,2013-08-16 17:22:00,
2013-08-16 13:26:00,68.5,56.3,29.00,North,-999,-999.0,-999.0,65,0.00,,,0.00,WSDL version 420,2013-08-16 17:26:00,
2013-08-16 13:28:00,68.5,56.3,29.00,North,-999,-999.0,-999.0,64,0.00,,,0.00,WSDL version 420,2013-08-16 17:28:00,
2013-08-16 13:30:00,68.6,55.9,29.00,North,-999,-999.0,-999.0,63,0.00,,,0.00,WSDL version 420,2013-08-16 17:30:00,
2013-08-16 13:32:00,68.7,55.6,29.00,North,-999,-999.0,-999.0,63,0.00,,,0.00,WSDL version 420,2013-08-16 17:32:00,
2013-08-16 13:34:00,68.7,55.4,29.00,North,-999,-999.0,-999.0,62,0.00,,,0.00,WSDL version 420,2013-08-16 17:34:00,
2013-08-16 13:38:00,68.7,55.0,29.00,North,-999,-999.0,-999.0,61,0.00,,,0.00,WSDL version 420,2013-08-16 17:38:00,
2013-08-16 13:40:00,68.6,54.8,29.00,North,-999,-999.0,-999.0,62,0.00,,,0.00,WSDL version 420,2013-08-16 17:40:00,
2013-08-16 13:42:00,68.5,54.5,29.00,North,-999,-999.0,-999.0,60,0.00,,,0.00,WSDL version 420,2013-08-16 17:42:00,
2013-08-16 13:44:00,68.5,54.3,29.00,North,-999,-999.0,-999.0,60,0.00,,,0.00,WSDL version 420,2013-08-16 17:44:00,
2013-08-16 13:48:00,68.4,54.1,29.00,North,-999,-999.0,-999.0,60,0.00,,,0.00,WSDL version 420,2013-08-16 17:48:00,
2013-08-16 13:50:00,68.4,54.0,29.00,North,-999,-999.0,-999.0,60,0.00,,,0.00,WSDL version 420,2013-08-16 17:50:00,
2013-08-16 13:52:00,68.4,54.0,29.00,North,-999,-999.0,-999.0,60,0.00,,,0.00,WSDL version 420,2013-08-16 17:52:00,
2013-08-16 13:54:00,68.4,54.0,29.00,North,-999,-999.0,-999.0,60,0.00,,,0.00,WSDL version 420,2013-08-16 17:54:00,
2013-08-16 13:56:00,68.3,53.7,29.00,North,-999,-999.0,-999.0,59,0.00,,,0.00,WSDL version 420,2013-08-16 17:56:00,
2013-08-16 13:58:00,68.2,53.5,29.00,North,-999,-999.0,-999.0,59,0.00,,,0.00,WSDL version 420,2013-08-16 17:58:00,
2013-08-16 14:00:00,68.2,53.3,29.00,North,-999,-999.0,-999.0,59,0.00,,,0.00,WSDL version 420,2013-08-16 18:00:00,
2013-08-16 14:02:00,68.2,53.4,29.00,North,-999,-999.0,-999.0,60,0.00,,,0.00,WSDL version 420,2013-08-16 18:02:00,
2013-08-16 14:06:00,68.2,53.6,29.00,North,-999,-999.0,-999.0,60,0.00,,,0.00,WSDL version 420,2013-08-16 18:06:00,
2013-08-16 14:08:00,68.2,53.9,29.00,North,-999,-999.0,-999.0,61,0.00,,,0.00,WSDL version 420,2013-08-16 18:08:00,
2013-08-16 14:10:00,68.3,54.3,29.00,North,-999,-999.0,-999.0,61,0.00,,,0.00,WSDL version 420,2013-08-16 18:10:00,
2013-08-16 14:14:00,68.4,54.6,29.00,North,-999,-999.0,-999.0,62,0.00,,,0.00,WSDL version 420,2013-08-16 18:14:00,
2013-08-16 14:16:00,68.4,54.6,29.00,North,-999,-999.0,-999.0,61,0.00,,,0.00,WSDL version 420,2013-08-16 18:16:00,
2013-08-16 14:22:00,68.4,54.6,29.00,North,-999,-999.0,-999.0,61,0.00,,,0.00,WSDL version 420,2013-08-16 18:22:00,
2013-08-16 14:24:00,68.3,54.2,29.00,North,-999,-999.0,-999.0,59,0.00,,,0.00,WSDL version 420,2013-08-16 18:24:00,
2013-08-16 14:28:00,68.2,53.3,29.00,North,-999,-999.0,-999.0,59,0.00,,,0.00,WSDL version 420,2013-08-16 18:28:00,
2013-08-16 14:30:00,68.2,53.3,29.00,North,-999,-999.0,-999.0,59,0.00,,,0.00,WSDL version 420,2013-08-16 18:30:00,
2013-08-16 14:32:00,68.2,53.3,29.00,North,-999,-999.0,-999.0,59,0.00,,,0.00,WSDL version 420,2013-08-16 18:32:00,
2013-08-16 14:34:00,68.2,53.3,29.00,North,-999,-999.0,-999.0,59,0.00,,,0.00,WSDL version 420,2013-08-16 18:34:00,
2013-08-16 14:38:00,68.2,53.1,29.00,North,-999,-999.0,-999.0,58,0.00,,,0.00,WSDL version 420,2013-08-16 18:38:00,
2013-08-16 14:40:00,68.2,53.0,29.00,North,-999,-999.0,-999.0,59,0.00,,,0.00,WSDL version 420,2013-08-16 18:40:00,
2013-08-16 14:42:00,68.3,53.3,29.00,North,-999,-999.0,-999.0,59,0.00,,,0.00,WSDL version 420,2013-08-16 18:42:00,
2013-08-16 14:48:00,68.5,53.7,29.00,North,-999,-999.0,-999.0,59,0.00,,,0.00,WSDL version 420,2013-08-16 18:48:00,
2013-08-16 14:50:00,68.5,53.4,29.00,North,-999,-999.0,-999.0,58,0.00,,,0.00,WSDL version 420,2013-08-16 18:50:00,
2013-08-16 14:54:00,68.6,53.7,29.00,North,-999,-999.0,-999.0,59,0.00,,,0.00,WSDL version 420,2013-08-16 18:54:00,
2013-08-16 14:56:00,68.7,53.7,29.00,North,-999,-999.0,-999.0,58,0.00,,,0.00,WSDL version 420,2013-08-16 18:56:00,
2013-08-16 14:58:00,68.7,53.5,29.00,North,-999,-999.0,-999.0,58,0.00,,,0.00,WSDL version 420,2013-08-16 18:58:00,
2013-08-16 15:00:00,68.7,53.2,29.00,North,-999,-999.0,-999.0,57,0.00,,,0.00,WSDL version 420,2013-08-16 19:00:00,
2013-08-16 15:04:00,68.7,52.7,29.00,North,-999,-999.0,-999.0,56,0.00,,,0.00,WSDL version 420,2013-08-16 19:04:00,
2013-08-16 15:06:00,68.8,52.5,29.00,North,-999,-999.0,-999.0,56,0.00,,,0.00,WSDL version 420,2013-08-16 19:06:00,
2013-08-16 15:08:00,68.9,52.5,28.97,North,-999,-999.0,-999.0,56,0.00,,,0.00,WSDL version 420,2013-08-16 19:08:00,
2013-08-16 15:12:00,69.4,53.2,28.97,North,-999,-999.0,-999.0,57,0.00,,,0.00,WSDL version 420,2013-08-16 19:12:00,
2013-08-16 15:14:00,69.5,53.4,28.97,North,-999,-999.0,-999.0,56,0.00,,,0.00,WSDL version 420,2013-08-16 19:14:00,
2013-08-16 15:16:00,69.7,53.5,28.97,North,-999,-999.0,-999.0,57,0.00,,,0.00,WSDL version 420,2013-08-16 19:16:00,
2013-08-16 15:18:00,70.0,53.8,28.97,North,-999,-999.0,-999.0,56,0.00,,,0.00,WSDL version 420,2013-08-16 19:18:00,
2013-08-16 15:20:00,70.1,54.1,28.97,North,-999,-999.0,-999.0,57,0.00,,,0.00,WSDL version 420,2013-08-16 19:20:00,
2013-08-16 15:24:00,70.2,54.1,28.97,North,-999,-999.0,-999.0,57,0.00,,,0.00,WSDL version 420,2013-08-16 19:24:00,
2013-08-16 15:26:00,70.2,54.2,28.97,North,-999,-999.0,-999.0,57,0.00,,,0.00,WSDL version 420,2013-08-16 19:26:00,
2013-08-16 15:28:00,70.3,54.3,28.97,North,-999,-999.0,-999.0,57,0.00,,,0.00,WSDL version 420,2013-08-16 19:28:00,
2013-08-16 15:32:00,70.4,53.9,28.97,North,-999,-999.0,-999.0,55,0.00,,,0.00,WSDL version 420,2013-08-16 19:32:00,
2013-08-16 15:34:00,70.4,53.6,28.97,North,-999,-999.0,-999.0,55,0.00,,,0.00,WSDL version 420,2013-08-16 19:34:00,
2013-08-16 15:38:00,70.5,53.3,29.00,North,-999,-999.0,-999.0,54,0.00,,,0.00,WSDL version 420,2013-08-16 19:38:00,
2013-08-16 15:40:00,70.5,53.0,29.00,North,-999,-999.0,-999.0,53,0.00,,,0.00,WSDL version 420,2013-08-16 19:40:00,
2013-08-16 15:44:00,70.6,53.0,29.00,North,-999,-999.0,-999.0,53,0.00,,,0.00,WSDL version 420,2013-08-16 19:44:00,
2013-08-16 15:46:00,70.7,53.2,29.00,North,-999,-999.0,-999.0,54,0.00,,,0.00,WSDL version 420,2013-08-16 19:46:00,
2013-08-16 15:48:00,70.8,53.1,29.00,North,-999,-999.0,-999.0,54,0.00,,,0.00,WSDL version 420,2013-08-16 19:48:00,
2013-08-16 15:50:00,70.9,53.1,29.00,North,-999,-999.0,-999.0,53,0.00,,,0.00,WSDL version 420,2013-08-16 19:50:00,
2013-08-16 15:54:00,71.0,53.1,29.00,North,-999,-999.0,-999.0,53,0.00,,,0.00,WSDL version 420,2013-08-16 19:54:00,
2013-08-16 15:56:00,71.1,53.2,29.00,North,-999,-999.0,-999.0,54,0.00,,,0.00,WSDL version 420,2013-08-16 19:56:00,
2013-08-16 15:58:00,71.0,53.2,29.00,North,-999,-999.0,-999.0,53,0.00,,,0.00,WSDL version 420,2013-08-16 19:58:00,
2013-08-16 16:00:00,70.9,53.0,29.00,North,-999,-999.0,-999.0,52,0.00,,,0.00,WSDL version 420,2013-08-16 20:00:00,
2013-08-16 16:02:00,70.8,52.5,29.00,North,-999,-999.0,-999.0,52,0.00,,,0.00,WSDL version 420,2013-08-16 20:02:00,
2013-08-16 16:04:00,70.8,52.1,29.00,North,-999,-999.0,-999.0,51,0.00,,,0.00,WSDL version 420,2013-08-16 20:04:00,
2013-08-16 16:06:00,70.7,51.8,29.00,North,-999,-999.0,-999.0,51,0.00,,,0.00,WSDL version 420,2013-08-16 20:06:00,
2013-08-16 16:10:00,70.6,51.1,28.97,North,-999,-999.0,-999.0,50,0.00,,,0.00,WSDL version 420,2013-08-16 20:10:00,
2013-08-16 16:12:00,70.5,51.0,28.97,North,-999,-999.0,-999.0,50,0.00,,,0.00,WSDL version 420,2013-08-16 20:12:00,
2013-08-16 16:18:00,70.7,51.7,28.97,North,-999,-999.0,-999.0,51,0.00,,,0.00,WSDL version 420,2013-08-16 20:18:00,
2013-08-16 16:20:00,70.6,51.6,28.97,North,-999,-999.0,-999.0,51,0.00,,,0.00,WSDL version 420,2013-08-16 20:20:00,
2013-08-16 16:24:00,70.7,51.9,28.97,North,-999,-999.0,-999.0,52,0.00,,,0.00,WSDL version 420,2013-08-16 20:24:00,
2013-08-16 16:26:00,70.7,52.0,28.97,North,-999,-999.0,-999.0,51,0.00,,,0.00,WSDL version 420,2013-08-16 20:26:00,
2013-08-16 16:30:00,70.9,51.9,28.97,North,-999,-999.0,-999.0,52,0.00,,,0.00,WSDL version 420,2013-08-16 20:30:00,
2013-08-16 16:32:00,70.9,52.1,28.97,North,-999,-999.0,-999.0,52,0.00,,,0.00,WSDL version 420,2013-08-16 20:32:00,
2013-08-16 16:36:00,70.8,52.0,28.97,North,-999,-999.0,-999.0,51,0.00,,,0.00,WSDL version 420,2013-08-16 20:36:00,
2013-08-16 16:38:00,70.7,51.8,28.97,North,-999,-999.0,-999.0,51,0.00,,,0.00,WSDL version 420,2013-08-16 20:38:00,
2013-08-16 16:42:00,70.7,51.7,28.97,North,-999,-999.0,-999.0,51,0.00,,,0.00,WSDL version 420,2013-08-16 20:42:00,
2013-08-16 16:44:00,70.6,51.7,28.97,North,-999,-999.0,-999.0,51,0.00,,,0.00,WSDL version 420,2013-08-16 20:44:00,
2013-08-16 16:46:00,70.6,51.6,28.97,North,-999,-999.0,-999.0,51,0.00,,,0.00,WSDL version 420,2013-08-16 20:46:00,
2013-08-16 16:48:00,70.5,51.5,28.97,North,-999,-999.0,-999.0,51,0.00,,,0.00,WSDL version 420,2013-08-16 20:48:00,
2013-08-16 16:52:00,70.6,51.7,28.97,North,-999,-999.0,-999.0,51,0.00,,,0.00,WSDL version 420,2013-08-16 20:52:00,
2013-08-16 16:54:00,70.6,51.6,28.97,North,-999,-999.0,-999.0,51,0.00,,,0.00,WSDL version 420,2013-08-16 20:54:00,
2013-08-16 16:56:00,70.5,51.8,28.97,North,-999,-999.0,-999.0,52,0.00,,,0.00,WSDL version 420,2013-08-16 20:56:00,
2013-08-16 16:58:00,70.6,52.0,28.97,North,-999,-999.0,-999.0,52,0.00,,,0.00,WSDL version 420,2013-08-16 20:58:00,
2013-08-16 17:00:00,70.6,52.0,28.97,North,-999,-999.0,-999.0,51,0.00,,,0.00,WSDL version 420,2013-08-16 21:00:00,
2013-08-16 17:02:00,70.7,52.0,28.97,North,-999,-999.0,-999.0,52,0.00,,,0.00,WSDL version 420,2013-08-16 21:02:00,
2013-08-16 17:06:00,70.9,52.4,28.97,North,-999,-999.0,-999.0,52,0.00,,,0.00,WSDL version 420,2013-08-16 21:06:00,
2013-08-16 17:08:00,70.9,52.4,28.97,North,-999,-999.0,-999.0,52,0.00,,,0.00,WSDL version 420,2013-08-16 21:08:00,
2013-08-16 17:10:00,70.9,52.4,28.97,North,-999,-999.0,-999.0,52,0.00,,,0.00,WSDL version 420,2013-08-16 21:10:00,
2013-08-16 17:14:00,70.9,52.4,28.97,North,-999,-999.0,-999.0,52,0.00,,,0.00,WSDL version 420,2013-08-16 21:14:00,
2013-08-16 17:16:00,70.9,52.4,28.97,North,-999,-999.0,-999.0,52,0.00,,,0.00,WSDL version 420,2013-08-16 21:16:00,
2013-08-16 17:20:00,70.9,52.2,28.97,North,-999,-999.0,-999.0,52,0.00,,,0.00,WSDL version 420,2013-08-16 21:20:00,
2013-08-16 17:22:00,70.9,52.2,28.97,North,-999,-999.0,-999.0,51,0.00,,,0.00,WSDL version 420,2013-08-16 21:22:00,
2013-08-16 17:26:00,70.9,51.9,28.97,North,-999,-999.0,-999.0,51,0.00,,,0.00,WSDL version 420,2013-08-16 21:26:00,
2013-08-16 17:28:00,70.9,51.8,28.97,North,-999,-999.0,-999.0,51,0.00,,,0.00,WSDL version 420,2013-08-16 21:28:00,
2013-08-16 17:30:00,70.8,51.6,28.97,North,-999,-999.0,-999.0,50,0.00,,,0.00,WSDL version 420,2013-08-16 21:30:00,
2013-08-16 17:34:00,70.7,51.4,28.97,North,-999,-999.0,-999.0,51,0.00,,,0.00,WSDL version 420,2013-08-16 21:34:00,
2013-08-16 17:36:00,70.6,51.6,28.97,North,-999,-999.0,-999.0,52,0.00,,,0.00,WSDL version 420,2013-08-16 21:36:00,
2013-08-16 17:38:00,70.6,51.8,28.97,North,-999,-999.0,-999.0,52,0.00,,,0.00,WSDL version 420,2013-08-16 21:38:00,
2013-08-16 17:40:00,70.5,52.0,28.97,North,-999,-999.0,-999.0,52,0.00,,,0.00,WSDL version 420,2013-08-16 21:40:00,
2013-08-16 17:42:00,70.4,52.0,28.97,North,-999,-999.0,-999.0,52,0.00,,,0.00,WSDL version 420,2013-08-16 21:42:00,
2013-08-16 17:44:00,70.4,51.9,28.97,North,-999,-999.0,-999.0,52,0.00,,,0.00,WSDL version 420,2013-08-16 21:44:00,
2013-08-16 17:48:00,70.3,51.9,28.97,North,-999,-999.0,-999.0,52,0.00,,,0.00,WSDL version 420,2013-08-16 21:48:00,
2013-08-16 17:50:00,70.3,52.1,28.97,North,-999,-999.0,-999.0,53,0.00,,,0.00,WSDL version 420,2013-08-16 21:50:00,
2013-08-16 17:52:00,70.3,52.3,28.97,North,-999,-999.0,-999.0,53,0.00,,,0.00,WSDL version 420,2013-08-16 21:52:00,
2013-08-16 17:56:00,70.2,52.1,28.97,North,-999,-999.0,-999.0,52,0.00,,,0.00,WSDL version 420,2013-08-16 21:56:00,
2013-08-16 17:58:00,70.2,52.2,28.97,North,-999,-999.0,-999.0,53,0.00,,,0.00,WSDL version 420,2013-08-16 21:58:00,
2013-08-16 18:00:00,70.2,52.2,28.97,North,-999,-999.0,-999.0,53,0.00,,,0.00,WSDL version 420,2013-08-16 22:00:00,
2013-08-16 18:04:00,70.2,52.3,28.97,North,-999,-999.0,-999.0,53,0.00,,,0.00,WSDL version 420,2013-08-16 22:04:00,
2013-08-16 18:06:00,70.2,52.3,28.97,North,-999,-999.0,-999.0,53,0.00,,,0.00,WSDL version 420,2013-08-16 22:06:00,
2013-08-16 18:10:00,70.2,52.5,28.97,North,-999,-999.0,-999.0,53,0.00,,,0.00,WSDL version 420,2013-08-16 22:10:00,
2013-08-16 18:12:00,70.2,52.5,28.97,North,-999,-999.0,-999.0,53,0.00,,,0.00,WSDL version 420,2013-08-16 22:12:00,
2013-08-16 18:14:00,70.1,52.2,28.97,North,-999,-999.0,-999.0,53,0.00,,,0.00,WSDL version 420,2013-08-16 22:14:00,
2013-08-16 18:18:00,70.0,52.3,28.97,North,-999,-999.0,-999.0,54,0.00,,,0.00,WSDL version 420,2013-08-16 22:18:00,
2013-08-16 18:20:00,70.0,52.5,28.97,North,-999,-999.0,-999.0,54,0.00,,,0.00,WSDL version 420,2013-08-16 22:20:00,
2013-08-16 18:26:00,70.0,53.1,28.97,North,-999,-999.0,-999.0,56,0.00,,,0.00,WSDL version 420,2013-08-16 22:26:00,
2013-08-16 18:28:00,70.0,53.4,28.97,North,-999,-999.0,-999.0,56,0.00,,,0.00,WSDL version 420,2013-08-16 22:28:00,
2013-08-16 18:30:00,69.9,53.5,28.97,North,-999,-999.0,-999.0,56,0.00,,,0.00,WSDL version 420,2013-08-16 22:30:00,
2013-08-16 18:32:00,69.9,53.5,28.97,North,-999,-999.0,-999.0,56,0.00,,,0.00,WSDL version 420,2013-08-16 22:32:00,
2013-08-16 18:36:00,69.8,53.5,28.97,North,-999,-999.0,-999.0,57,0.00,,,0.00,WSDL version 420,2013-08-16 22:36:00,
2013-08-16 18:38:00,69.7,53.8,28.97,North,-999,-999.0,-999.0,58,0.00,,,0.00,WSDL version 420,2013-08-16 22:38:00,
2013-08-16 18:44:00,69.6,53.7,28.97,North,-999,-999.0,-999.0,57,0.00,,,0.00,WSDL version 420,2013-08-16 22:44:00,
2013-08-16 18:46:00,69.6,53.7,28.97,North,-999,-999.0,-999.0,57,0.00,,,0.00,WSDL version 420,2013-08-16 22:46:00,
2013-08-16 18:48:00,69.6,53.7,28.97,North,-999,-999.0,-999.0,57,0.00,,,0.00,WSDL version 420,2013-08-16 22:48:00,
2013-08-16 18:50:00,69.6,53.7,28.97,North,-999,-999.0,-999.0,57,0.00,,,0.00,WSDL version 420,2013-08-16 22:50:00,
2013-08-16 18:52:00,69.6,53.7,28.97,North,-999,-999.0,-999.0,57,0.00,,,0.00,WSDL version 420,2013-08-16 22:52:00,
2013-08-16 18:56:00,69.6,54.0,28.97,North,-999,-999.0,-999.0,58,0.00,,,0.00,WSDL version 420,2013-08-16 22:56:00,
2013-08-16 18:58:00,69.6,54.2,28.97,North,-999,-999.0,-999.0,58,0.00,,,0.00,WSDL version 420,2013-08-16 22:58:00,
2013-08-16 19:00:00,69.6,54.2,28.97,North,-999,-999.0,-999.0,59,0.00,,,0.00,WSDL version 420,2013-08-16 23:00:00,
2013-08-16 19:02:00,69.5,54.3,28.97,North,-999,-999.0,-999.0,59,0.00,,,0.00,WSDL version 420,2013-08-16 23:02:00,
2013-08-16 19:08:00,69.4,54.6,28.97,North,-999,-999.0,-999.0,60,0.00,,,0.00,WSDL version 420,2013-08-16 23:08:00,
2013-08-16 19:10:00,69.4,54.8,28.97,North,-999,-999.0,-999.0,61,0.00,,,0.00,WSDL version 420,2013-08-16 23:10:00,
2013-08-16 19:14:00,69.3,55.4,28.97,North,-999,-999.0,-999.0,62,0.00,,,0.00,WSDL version 420,2013-08-16 23:14:00,
2013-08-16 19:16:00,69.3,55.8,28.97,North,-999,-999.0,-999.0,63,0.00,,,0.00,WSDL version 420,2013-08-16 23:16:00,
2013-08-16 19:18:00,69.2,56.0,28.97,North,-999,-999.0,-999.0,64,0.00,,,0.00,WSDL version 420,2013-08-16 23:18:00,
2013-08-16 19:20:00,69.1,56.3,28.97,North,-999,-999.0,-999.0,64,0.00,,,0.00,WSDL version 420,2013-08-16 23:20:00,
2013-08-16 19:24:00,69.1,56.5,28.97,North,-999,-999.0,-999.0,65,0.00,,,0.00,WSDL version 420,2013-08-16 23:24:00,
2013-08-16 19:26:00,69.0,56.5,28.97,North,-999,-999.0,-999.0,65,0.00,,,0.00,WSDL version 420,2013-08-16 23:26:00,
2013-08-16 19:28:00,68.9,56.7,28.97,North,-999,-999.0,-999.0,65,0.00,,,0.00,WSDL version 420,2013-08-16 23:28:00,
2013-08-16 19:30:00,68.8,56.7,28.97,North,-999,-999.0,-999.0,66,0.00,,,0.00,WSDL version 420,2013-08-16 23:30:00,
2013-08-16 19:34:00,68.7,57.0,28.97,North,-999,-999.0,-999.0,67,0.00,,,0.00,WSDL version 420,2013-08-16 23:34:00,
2013-08-16 19:36:00,68.7,57.2,28.97,North,-999,-999.0,-999.0,67,0.00,,,0.00,WSDL version 420,2013-08-16 23:36:00,
2013-08-16 19:42:00,68.7,57.7,28.97,North,-999,-999.0,-999.0,68,0.00,,,0.00,WSDL version 420,2013-08-16 23:42:00,
2013-08-16 19:44:00,68.7,57.7,28.97,North,-999,-999.0,-999.0,68,0.00,,,0.00,WSDL version 420,2013-08-16 23:44:00,
2013-08-16 19:48:00,68.6,57.8,28.97,North,-999,-999.0,-999.0,69,0.00,,,0.00,WSDL version 420,2013-08-16 23:48:00,
2013-08-16 19:52:00,68.5,57.9,29.00,North,-999,-999.0,-999.0,69,0.00,,,0.00,WSDL version 420,2013-08-16 23:52:00,
2013-08-16 19:54:00,68.5,57.9,29.00,North,-999,-999.0,-999.0,69,0.00,,,0.00,WSDL version 420,2013-08-16 23:54:00,
2013-08-16 19:56:00,68.4,57.9,29.00,North,-999,-999.0,-999.0,69,0.00,,,0.00,WSDL version 420,2013-08-16 23:56:00,
2013-08-16 19:58:00,68.4,57.9,29.00,North,-999,-999.0,-999.0,70,0.00,,,0.00,WSDL version 420,2013-08-16 23:58:00,
2013-08-16 20:02:00,68.3,58.1,29.00,North,-999,-999.0,-999.0,70,0.00,,,0.00,WSDL version 420,2013-08-17 00:02:00,
2013-08-16 20:04:00,68.2,58.1,29.00,North,-999,-999.0,-999.0,70,0.00,,,0.00,WSDL version 420,2013-08-17 00:04:00,
2013-08-16 20:06:00,68.1,58.0,29.00,North,-999,-999.0,-999.0,70,0.00,,,0.00,WSDL version 420,2013-08-17 00:06:00,
2013-08-16 20:08:00,68.1,57.9,28.97,North,-999,-999.0,-999.0,70,0.00,,,0.00,WSDL version 420,2013-08-17 00:08:00,
2013-08-16 20:10:00,67.9,57.9,28.97,North,-999,-999.0,-999.0,71,0.00,,,0.00,WSDL version 420,2013-08-17 00:10:00,
2013-08-16 20:12:00,67.9,58.0,28.97,North,-999,-999.0,-999.0,71,0.00,,,0.00,WSDL version 420,2013-08-17 00:12:00,
2013-08-16 20:14:00,67.8,58.2,28.97,North,-999,-999.0,-999.0,72,0.00,,,0.00,WSDL version 420,2013-08-17 00:14:00,
2013-08-16 20:18:00,67.7,58.3,28.97,North,-999,-999.0,-999.0,72,0.00,,,0.00,WSDL version 420,2013-08-17 00:18:00,
2013-08-16 20:20:00,67.6,58.3,28.97,North,-999,-999.0,-999.0,72,0.00,,,0.00,WSDL version 420,2013-08-17 00:20:00,
2013-08-16 20:22:00,67.6,58.5,29.00,North,-999,-999.0,-999.0,73,0.00,,,0.00,WSDL version 420,2013-08-17 00:22:00,
2013-08-16 20:24:00,67.6,58.7,29.00,North,-999,-999.0,-999.0,74,0.00,,,0.00,WSDL version 420,2013-08-17 00:24:00,
2013-08-16 20:26:00,67.6,58.9,29.00,North,-999,-999.0,-999.0,74,0.00,,,0.00,WSDL version 420,2013-08-17 00:26:00,
2013-08-16 20:28:00,67.5,59.0,29.00,North,-999,-999.0,-999.0,75,0.00,,,0.00,WSDL version 420,2013-08-17 00:28:00,
2013-08-16 20:30:00,67.5,59.1,29.00,North,-999,-999.0,-999.0,75,0.00,,,0.00,WSDL version 420,2013-08-17 00:30:00,
2013-08-16 20:32:00,67.5,59.3,29.00,North,-999,-999.0,-999.0,76,0.00,,,0.00,WSDL version 420,2013-08-17 00:32:00,
2013-08-16 20:34:00,67.4,59.4,29.00,North,-999,-999.0,-999.0,76,0.00,,,0.00,WSDL version 420,2013-08-17 00:34:00,
2013-08-16 20:38:00,67.3,59.6,29.00,North,-999,-999.0,-999.0,77,0.00,,,0.00,WSDL version 420,2013-08-17 00:38:00,
2013-08-16 20:42:00,67.3,60.1,29.00,North,-999,-999.0,-999.0,79,0.00,,,0.00,WSDL version 420,2013-08-17 00:42:00,
2013-08-16 20:46:00,67.3,60.6,29.00,North,-999,-999.0,-999.0,79,0.00,,,0.00,WSDL version 420,2013-08-17 00:46:00,
2013-08-16 20:48:00,67.2,60.5,29.00,North,-999,-999.0,-999.0,79,0.00,,,0.00,WSDL version 420,2013-08-17 00:48:00,
2013-08-16 20:50:00,67.2,60.5,29.00,North,-999,-999.0,-999.0,80,0.00,,,0.00,WSDL version 420,2013-08-17 00:50:00,
2013-08-16 20:56:00,67.0,60.6,29.00,North,-999,-999.0,-999.0,80,0.00,,,0.00,WSDL version 420,2013-08-17 00:56:00,
2013-08-16 20:58:00,66.9,60.7,29.00,North,-999,-999.0,-999.0,81,0.00,,,0.00,WSDL version 420,2013-08-17 00:58:00,
2013-08-16 21:00:00,66.9,60.9,29.00,North,-999,-999.0,-999.0,81,0.00,,,0.00,WSDL version 420,2013-08-17 01:00:00,
2013-08-16 21:02:00,66.9,61.2,29.00,North,-999,-999.0,-999.0,83,0.00,,,0.00,WSDL version 420,2013-08-17 01:02:00,
2013-08-16 21:04:00,66.9,61.5,29.00,North,-999,-999.0,-999.0,84,0.00,,,0.00,WSDL version 420,2013-08-17 01:04:00,
2013-08-16 21:06:00,66.8,61.9,29.00,North,-999,-999.0,-999.0,84,0.00,,,0.00,WSDL version 420,2013-08-17 01:06:00,
2013-08-16 21:10:00,66.7,62.0,29.00,North,-999,-999.0,-999.0,86,0.00,,,0.00,WSDL version 420,2013-08-17 01:10:00,
2013-08-16 21:12:00,66.7,62.1,29.00,North,-999,-999.0,-999.0,86,0.00,,,0.00,WSDL version 420,2013-08-17 01:12:00,
2013-08-16 21:14:00,66.6,62.2,29.00,North,-999,-999.0,-999.0,87,0.00,,,0.00,WSDL version 420,2013-08-17 01:14:00,
2013-08-16 21:16:00,66.6,62.5,29.00,North,-999,-999.0,-999.0,88,0.00,,,0.00,WSDL version 420,2013-08-17 01:16:00,
2013-08-16 21:20:00,66.6,63.2,29.00,North,-999,-999.0,-999.0,90,0.00,,,0.00,WSDL version 420,2013-08-17 01:20:00,
2013-08-16 21:22:00,66.6,63.5,29.00,North,-999,-999.0,-999.0,91,0.00,,,0.00,WSDL version 420,2013-08-17 01:22:00,
2013-08-16 21:24:00,66.6,63.8,29.00,North,-999,-999.0,-999.0,92,0.00,,,0.00,WSDL version 420,2013-08-17 01:24:00,
2013-08-16 21:26:00,66.6,64.1,29.00,North,-999,-999.0,-999.0,92,0.00,,,0.00,WSDL version 420,2013-08-17 01:26:00,
2013-08-16 21:28:00,66.6,64.2,29.00,North,-999,-999.0,-999.0,92,0.00,,,0.00,WSDL version 420,2013-08-17 01:28:00,
2013-08-16 21:30:00,66.6,64.2,29.00,North,-999,-999.0,-999.0,92,0.00,,,0.00,WSDL version 420,2013-08-17 01:30:00,
2013-08-16 21:32:00,66.6,64.4,29.00,North,-999,-999.0,-999.0,93,0.00,,,0.00,WSDL version 420,2013-08-17 01:32:00,
2013-08-16 21:36:00,66.6,65.0,29.00,North,-999,-999.0,-999.0,97,0.00,,,0.00,WSDL version 420,2013-08-17 01:36:00,
2013-08-16 21:40:00,66.6,65.8,29.03,North,-999,-999.0,-999.0,98,0.00,,,0.00,WSDL version 420,2013-08-17 01:40:00,
2013-08-16 21:42:00,66.6,66.0,29.03,North,-999,-999.0,-999.0,99,0.00,,,0.00,WSDL version 420,2013-08-17 01:42:00,
2013-08-16 21:44:00,66.6,66.2,29.03,North,-999,-999.0,-999.0,99,0.00,,,0.00,WSDL version 420,2013-08-17 01:44:00,
2013-08-16 21:46:00,66.6,66.3,29.03,North,-999,-999.0,-999.0,99,0.00,,,0.00,WSDL version 420,2013-08-17 01:46:00,
2013-08-16 21:52:00,66.6,66.6,29.03,North,-999,-999.0,-999.0,100,0.00,,,0.00,WSDL version 420,2013-08-17 01:52:00,
2013-08-16 21:54:00,66.5,66.5,29.03,North,-999,-999.0,-999.0,100,0.00,,,0.00,WSDL version 420,2013-08-17 01:54:00,
2013-08-16 21:58:00,66.4,66.4,29.03,North,-999,-999.0,-999.0,100,0.00,,,0.00,WSDL version 420,2013-08-17 01:58:00,
2013-08-16 22:00:00,66.4,66.4,29.03,North,-999,-999.0,-999.0,100,0.00,,,0.00,WSDL version 420,2013-08-17 02:00:00,
2013-08-16 22:02:00,66.4,66.4,29.03,North,-999,-999.0,-999.0,100,0.00,,,0.00,WSDL version 420,2013-08-17 02:02:00,
2013-08-16 22:06:00,66.3,66.3,29.03,North,-999,-999.0,-999.0,100,0.00,,,0.00,WSDL version 420,2013-08-17 02:06:00,
2013-08-16 22:08:00,66.2,66.2,29.03,North,-999,-999.0,-999.0,100,0.00,,,0.00,WSDL version 420,2013-08-17 02:08:00,
2013-08-16 22:12:00,66.2,66.2,29.03,North,-999,-999.0,-999.0,100,0.00,,,0.00,WSDL version 420,2013-08-17 02:12:00,
2013-08-16 22:16:00,66.1,66.1,29.03,North,-999,-999.0,-999.0,100,0.00,,,0.00,WSDL version 420,2013-08-17 02:16:00,
2013-08-16 22:20:00,66.0,66.0,29.03,North,-999,-999.0,-999.0,100,0.00,,,0.00,WSDL version 420,2013-08-17 02:20:00,
2013-08-16 22:26:00,66.1,66.0,29.03,North,-999,-999.0,-999.0,100,0.00,,,0.00,WSDL version 420,2013-08-17 02:26:00,
2013-08-16 22:30:00,66.0,66.0,29.03,North,-999,-999.0,-999.0,100,0.00,,,0.00,WSDL version 420,2013-08-17 02:30:00,
2013-08-16 22:32:00,66.0,66.0,29.03,North,-999,-999.0,-999.0,100,0.00,,,0.00,WSDL version 420,2013-08-17 02:32:00,
2013-08-16 22:34:00,66.0,66.0,29.03,North,-999,-999.0,-999.0,100,0.00,,,0.00,WSDL version 420,2013-08-17 02:34:00,
2013-08-16 22:36:00,66.0,66.0,29.03,North,-999,-999.0,-999.0,100,0.00,,,0.00,WSDL version 420,2013-08-17 02:36:00,
2013-08-16 22:38:00,66.0,66.0,29.03,North,-999,-999.0,-999.0,100,0.00,,,0.00,WSDL version 420,2013-08-17 02:38:00,
2013-08-16 22:40:00,66.0,66.0,29.03,North,-999,-999.0,-999.0,100,0.00,,,0.00,WSDL version 420,2013-08-17 02:40:00,
2013-08-16 22:44:00,66.0,66.0,29.03,North,-999,-999.0,-999.0,100,0.00,,,0.00,WSDL version 420,2013-08-17 02:44:00,
2013-08-16 22:48:00,66.0,66.0,29.03,North,-999,-999.0,-999.0,100,0.00,,,0.00,WSDL version 420,2013-08-17 02:48:00,
2013-08-16 22:50:00,66.0,66.0,29.03,North,-999,-999.0,-999.0,100,0.00,,,0.00,WSDL version 420,2013-08-17 02:50:00,
2013-08-16 22:52:00,65.9,65.9,29.03,North,-999,-999.0,-999.0,100,0.00,,,0.00,WSDL version 420,2013-08-17 02:52:00,
2013-08-16 22:56:00,65.8,65.7,29.03,North,-999,-999.0,-999.0,100,0.00,,,0.00,WSDL version 420,2013-08-17 02:56:00,
2013-08-16 22:58:00,65.7,65.7,29.03,North,-999,-999.0,-999.0,100,0.00,,,0.00,WSDL version 420,2013-08-17 02:58:00,
2013-08-16 23:02:00,65.5,65.5,29.03,North,-999,-999.0,-999.0,100,0.00,,,0.00,WSDL version 420,2013-08-17 03:02:00,
2013-08-16 23:04:00,65.5,65.5,29.03,North,-999,-999.0,-999.0,100,0.00,,,0.00,WSDL version 420,2013-08-17 03:04:00,
2013-08-16 23:06:00,65.5,65.5,29.03,North,-999,-999.0,-999.0,100,0.00,,,0.00,WSDL version 420,2013-08-17 03:06:00,
2013-08-16 23:08:00,65.5,65.5,29.03,North,-999,-999.0,-999.0,100,0.00,,,0.00,WSDL version 420,2013-08-17 03:08:00,
2013-08-16 23:10:00,65.4,65.4,29.03,North,-999,-999.0,-999.0,100,0.00,,,0.00,WSDL version 420,2013-08-17 03:10:00,
2013-08-16 23:12:00,65.3,65.3,29.03,North,-999,-999.0,-999.0,100,0.00,,,0.00,WSDL version 420,2013-08-17 03:12:00,
2013-08-16 23:14:00,65.3,65.3,29.03,North,-999,-999.0,-999.0,100,0.00,,,0.00,WSDL version 420,2013-08-17 03:14:00,
2013-08-16 23:20:00,65.3,65.3,29.03,North,-999,-999.0,-999.0,100,0.00,,,0.00,WSDL version 420,2013-08-17 03:20:00,
2013-08-16 23:22:00,65.4,65.4,29.03,North,-999,-999.0,-999.0,100,0.00,,,0.00,WSDL version 420,2013-08-17 03:22:00,
2013-08-16 23:24:00,65.4,65.4,29.03,North,-999,-999.0,-999.0,100,0.00,,,0.00,WSDL version 420,2013-08-17 03:24:00,
2013-08-16 23:28:00,65.5,65.5,29.03,North,-999,-999.0,-999.0,100,0.00,,,0.00,WSDL version 420,2013-08-17 03:28:00,
2013-08-16 23:32:00,65.5,65.5,29.03,North,-999,-999.0,-999.0,100,0.00,,,0.00,WSDL version 420,2013-08-17 03:32:00,
2013-08-16 23:36:00,65.5,65.5,29.03,North,-999,-999.0,-999.0,100,0.00,,,0.00,WSDL version 420,2013-08-17 03:36:00,
2013-08-16 23:38:00,65.5,65.5,29.03,North,-999,-999.0,-999.0,100,0.00,,,0.00,WSDL version 420,2013-08-17 03:38:00,
2013-08-16 23:42:00,65.5,65.5,29.03,North,-999,-999.0,-999.0,100,0.00,,,0.00,WSDL version 420,2013-08-17 03:42:00,
2013-08-16 23:44:00,65.5,65.5,29.03,North,-999,-999.0,-999.0,100,0.00,,,0.00,WSDL version 420,2013-08-17 03:44:00,
2013-08-16 23:50:00,65.5,65.5,29.03,North,-999,-999.0,-999.0,100,0.00,,,0.00,WSDL version 420,2013-08-17 03:50:00,
2013-08-16 23:52:00,65.5,65.5,29.03,North,-999,-999.0,-999.0,100,0.00,,,0.00,WSDL version 420,2013-08-17 03:52:00,
2013-08-16 23:54:00,65.5,65.5,29.03,North,-999,-999.0,-999.0,100,0.00,,,0.00,WSDL version 420,2013-08-17 03:54:00,
2013-08-16 23:56:00,65.5,65.5,29.03,North,-999,-999.0,-999.0,100,0.00,,,0.00,WSDL version 420,2013-08-17 03:56:00,
2013-08-16 23:58:00,65.5,65.5,29.03,North,-999,-999.0,-999.0,100,0.00,,,0.00,WSDL version 420,2013-08-17 03:58:00,